DucheSS Of Scandinavia — OUZI2 — position and weather

sailwx.info

Track history (hours):
 
Tides and Currents Weather Stations Pressure Air Temp Water Temp Dewpoint Dewpoint Depression Visibility Wind Speed Wind Dir Waves Ship Positions

DucheSS Of Scandinavia

Operator: DFDS A/S

Last reported at 2019-Sep-17 08:00 UTC. Time now 2019-Sep-17 08:19 UTC.
Position N 59°02' E 010°45'.

Length 134 m; draft 5.4 m.

Type: Passenger vessel. MMSI: 219002929.

Date/timePositionNaut miles runAvg speedWind from/ knotsBaromVisibWave heightAir tempDewpointWater temp
2019-Sep-17 08:00N 59°02' E 010°45'714.7
2019-Sep-17 07:30N 59°00' E 010°31'714.6
2019-Sep-17 07:01N 59°01' E 010°17'612.4
2019-Sep-17 06:31N 59°07' E 010°14'0 0.6
2019-Sep-17 06:00N 59°08' E 010°14'0 0.6
2019-Sep-17 05:30N 59°07' E 010°14'1 2.3
2019-Sep-17 05:00N 59°06' E 010°14'0 0.0
2019-Sep-17 04:30N 59°06' E 010°14'0 0.0
2019-Sep-17 04:00N 59°06' E 010°14'0 0.0
2019-Sep-17 03:28N 59°06' E 010°14'0 0.0
2019-Sep-17 02:58N 59°06' E 010°14'0 0.0
2019-Sep-17 02:28N 59°06' E 010°14'0 0.0
2019-Sep-17 01:59N 59°06' E 010°14'0 0.0
2019-Sep-17 01:29N 59°06' E 010°14'0 0.0
2019-Sep-17 00:56N 59°06' E 010°14'0 0.0
2019-Sep-17 00:30N 59°06' E 010°14'0 0.0
2019-Sep-17 00:00N 59°06' E 010°14'0 0.0
2019-Sep-16 23:30N 59°06' E 010°14'0 0.0
2019-Sep-16 22:58N 59°06' E 010°14'0 0.0
2019-Sep-16 22:28N 59°06' E 010°14'0 0.0
2019-Sep-16 21:58N 59°06' E 010°14'0 0.0
2019-Sep-16 21:29N 59°06' E 010°14'0 0.0
2019-Sep-16 20:59N 59°06' E 010°14'0 0.0
2019-Sep-16 20:29N 59°06' E 010°14'0 0.0
2019-Sep-16 20:00N 59°06' E 010°14'0 0.2
2019-Sep-16 19:30N 59°06' E 010°14'1 2.6
2019-Sep-16 19:00N 59°08' E 010°14'4 8.9
2019-Sep-16 18:30N 59°03' E 010°15'815.0
2019-Sep-16 18:00N 59°01' E 010°29'816.1
2019-Sep-16 17:30N 59°02' E 010°44'815.9
2019-Sep-16 17:00N 58°59' E 010°59'612.9
2019-Sep-16 16:30N 58°56' E 011°10'0 0.2
2019-Sep-16 16:00N 58°56' E 011°10'4 8.5
2019-Sep-16 15:30N 58°58' E 011°03'714.5
2019-Sep-16 15:01N 59°01' E 010°50'714.7
2019-Sep-16 14:30N 59°01' E 010°36'714.7
2019-Sep-16 14:00N 59°01' E 010°22'613.0
2019-Sep-16 13:30N 59°06' E 010°14'2 3.2
2019-Sep-16 13:00N 59°08' E 010°14'0 0.7
2019-Sep-16 12:30N 59°07' E 010°14'611.4
2019-Sep-16 12:00N 59°02' E 010°16'714.1
2019-Sep-16 11:30N 59°00' E 010°30'714.1
2019-Sep-16 11:00N 59°02' E 010°43'815.1
2019-Sep-16 10:30N 59°00' E 010°58'714.3
2019-Sep-16 10:00N 58°56' E 011°09'1 1.5
2019-Sep-16 09:30N 58°56' E 011°10'0 0.4
2019-Sep-16 09:00N 58°56' E 011°10'612.6
2019-Sep-16 08:30N 58°59' E 010°59'715.0
2019-Sep-16 08:00N 59°02' E 010°46'815.2
2019-Sep-16 07:30N 59°00' E 010°31'714.8
2019-Sep-16 07:00N 59°01' E 010°17'612.2
2019-Sep-16 06:30N 59°07' E 010°14'0 0.5
2019-Sep-16 06:01N 59°08' E 010°14'1 1.8
2019-Sep-16 05:30N 59°07' E 010°14'1 1.1
2019-Sep-16 05:00N 59°06' E 010°14'0 0.0
2019-Sep-16 04:30N 59°06' E 010°14'0 0.0
2019-Sep-16 04:00N 59°06' E 010°14'0 0.0
2019-Sep-16 03:30N 59°06' E 010°14'0 0.0
2019-Sep-16 02:58N 59°06' E 010°14'0 0.0
2019-Sep-16 02:28N 59°06' E 010°14'0 0.0
2019-Sep-16 01:58N 59°06' E 010°14'0 0.0
2019-Sep-16 01:29N 59°06' E 010°14'0 0.0
2019-Sep-16 00:59N 59°06' E 010°14'0 0.0
2019-Sep-16 00:29N 59°06' E 010°14'0 0.0
2019-Sep-16 00:00N 59°06' E 010°14'0 0.0
2019-Sep-15 23:30N 59°06' E 010°14'0 0.0
2019-Sep-15 23:00N 59°06' E 010°14'0 0.0
2019-Sep-15 22:28N 59°06' E 010°14'0 0.0
2019-Sep-15 21:58N 59°06' E 010°14'0 0.0
2019-Sep-15 21:28N 59°06' E 010°14'0 0.0
2019-Sep-15 20:59N 59°06' E 010°14'0 0.0
2019-Sep-15 20:29N 59°06' E 010°14'0 0.0
2019-Sep-15 19:59N 59°06' E 010°14'0 0.0
2019-Sep-15 19:30N 59°06' E 010°14'0 0.0
2019-Sep-15 19:00N 59°06' E 010°14'0 0.0
2019-Sep-15 18:30N 59°06' E 010°14'0 0.0
2019-Sep-15 17:58N 59°06' E 010°14'0 0.0
2019-Sep-15 17:28N 59°06' E 010°14'0 0.0
2019-Sep-15 16:58N 59°06' E 010°14'0 0.0
2019-Sep-15 16:29N 59°06' E 010°14'0 0.0
2019-Sep-15 15:59N 59°06' E 010°14'0 0.0
2019-Sep-15 15:29N 59°06' E 010°14'0 0.0
2019-Sep-15 15:00N 59°06' E 010°14'0 0.0
2019-Sep-15 14:30N 59°06' E 010°14'0 0.0
2019-Sep-15 14:00N 59°06' E 010°14'1 2.5
2019-Sep-15 13:30N 59°07' E 010°14'0 0.1
2019-Sep-15 13:01N 59°07' E 010°14'611.8
2019-Sep-15 12:30N 59°01' E 010°15'611.9
2019-Sep-15 12:01N 58°60' E 010°26'611.3
2019-Sep-15 11:31N 59°00' E 010°37'611.4
2019-Sep-15 11:01N 59°02' E 010°47'714.8
2019-Sep-15 10:30N 58°59' E 011°01'611.5
2019-Sep-15 10:00N 58°56' E 011°10'0 0.0
2019-Sep-15 09:30N 58°56' E 011°10'1 1.8
2019-Sep-15 09:00N 58°56' E 011°08'714.6
2019-Sep-15 08:30N 59°00' E 010°57'714.8
2019-Sep-15 08:00N 59°02' E 010°43'815.2
2019-Sep-15 07:30N 58°59' E 010°29'715.1
2019-Sep-15 07:00N 59°01' E 010°15'612.8
2019-Sep-15 06:30N 59°07' E 010°14'0 0.4
2019-Sep-15 06:00N 59°08' E 010°14'0 0.7
2019-Sep-15 05:31N 59°07' E 010°14'1 2.1
2019-Sep-15 05:00N 59°06' E 010°14'0 0.0
2019-Sep-15 04:29N 59°06' E 010°14'0 0.0
2019-Sep-15 03:59N 59°06' E 010°14'0 0.0
2019-Sep-15 03:29N 59°06' E 010°14'0 0.0
2019-Sep-15 03:00N 59°06' E 010°14'0 0.0
2019-Sep-15 02:30N 59°06' E 010°14'0 0.0
2019-Sep-15 02:00N 59°06' E 010°14'0 0.0
2019-Sep-15 01:28N 59°06' E 010°14'0 0.0
2019-Sep-15 00:58N 59°06' E 010°14'0 0.0
2019-Sep-15 00:28N 59°06' E 010°14'0 0.0
2019-Sep-14 23:59N 59°06' E 010°14'0 0.0
2019-Sep-14 23:29N 59°06' E 010°14'0 0.0
2019-Sep-14 22:59N 59°06' E 010°14'0 0.0
2019-Sep-14 22:30N 59°06' E 010°14'0 0.0
2019-Sep-14 22:00N 59°06' E 010°14'0 0.0
2019-Sep-14 21:30N 59°06' E 010°14'0 0.0
2019-Sep-14 20:58N 59°06' E 010°14'0 0.0
2019-Sep-14 20:28N 59°06' E 010°14'0 0.0
2019-Sep-14 19:58N 59°06' E 010°14'1 3.1
2019-Sep-14 19:30N 59°08' E 010°14'2 3.7
2019-Sep-14 19:00N 59°06' E 010°14'713.5
2019-Sep-14 18:30N 59°00' E 010°22'611.9
2019-Sep-14 18:00N 59°00' E 010°33'612.5
2019-Sep-14 17:30N 59°01' E 010°45'714.7
2019-Sep-14 17:00N 58°60' E 010°59'713.3
2019-Sep-14 16:31N 58°56' E 011°09'0 0.7
2019-Sep-14 16:00N 58°56' E 011°10'4 8.4
2019-Sep-14 15:30N 58°58' E 011°03'714.7
2019-Sep-14 15:00N 59°01' E 010°50'714.6
2019-Sep-14 14:31N 59°01' E 010°36'815.1
2019-Sep-14 14:00N 59°01' E 010°21'612.9
2019-Sep-14 13:30N 59°06' E 010°14'1 2.9
2019-Sep-14 13:00N 59°08' E 010°14'0 0.6
2019-Sep-14 12:30N 59°07' E 010°14'612.0
2019-Sep-14 12:00N 59°02' E 010°17'714.8
2019-Sep-14 11:30N 59°00' E 010°31'715.0
2019-Sep-14 11:01N 59°02' E 010°45'714.8
2019-Sep-14 10:30N 58°60' E 010°59'713.6
2019-Sep-14 10:00N 58°56' E 011°10'0 0.3
2019-Sep-14 09:30N 58°56' E 011°10'0 0.3
2019-Sep-14 09:00N 58°56' E 011°10'713.5
2019-Sep-14 08:30N 58°60' E 010°59'815.6
2019-Sep-14 08:01N 59°02' E 010°44'815.6
2019-Sep-14 07:31N 59°00' E 010°29'815.0
2019-Sep-14 07:00N 59°03' E 010°15'510.2
2019-Sep-14 06:30N 59°08' E 010°14'0 0.0
2019-Sep-14 06:00N 59°08' E 010°14'1 1.1
2019-Sep-14 05:30N 59°07' E 010°14'1 1.8
2019-Sep-14 05:00N 59°06' E 010°14'0 0.0
2019-Sep-14 04:28N 59°06' E 010°14'0 0.0
2019-Sep-14 03:58N 59°06' E 010°14'0 0.0
2019-Sep-14 03:28N 59°06' E 010°14'0 0.0
2019-Sep-14 02:59N 59°06' E 010°14'0 0.0
2019-Sep-14 02:29N 59°06' E 010°14'0 0.0
2019-Sep-14 01:59N 59°06' E 010°14'0 0.0
2019-Sep-14 01:30N 59°06' E 010°14'0 0.0
2019-Sep-14 01:00N 59°06' E 010°14'0 0.0
2019-Sep-14 00:30N 59°06' E 010°14'0 0.0
2019-Sep-13 23:58N 59°06' E 010°14'0 0.0
2019-Sep-13 23:28N 59°06' E 010°14'0 0.0
2019-Sep-13 22:59N 59°06' E 010°14'0 0.0
2019-Sep-13 22:29N 59°06' E 010°14'0 0.0
2019-Sep-13 21:59N 59°06' E 010°14'0 0.0
2019-Sep-13 21:29N 59°06' E 010°14'0 0.0
2019-Sep-13 21:00N 59°06' E 010°14'0 0.0
2019-Sep-13 20:30N 59°06' E 010°14'0 0.0
2019-Sep-13 20:00N 59°06' E 010°14'1 2.9
2019-Sep-13 19:30N 59°08' E 010°14'1 1.4
2019-Sep-13 19:00N 59°07' E 010°14'612.3
2019-Sep-13 18:30N 59°01' E 010°19'815.9
2019-Sep-13 18:01N 59°01' E 010°34'816.1
2019-Sep-13 17:31N 59°01' E 010°50'815.8
2019-Sep-13 17:00N 58°58' E 011°04'4 7.6
2019-Sep-13 16:30N 58°56' E 011°10'0 0.0
2019-Sep-13 16:00N 58°56' E 011°10'4 8.6
2019-Sep-13 15:30N 58°58' E 011°03'815.3
2019-Sep-13 15:00N 59°01' E 010°49'715.1
2019-Sep-13 14:30N 59°01' E 010°35'714.9
2019-Sep-13 14:00N 59°01' E 010°20'612.7
2019-Sep-13 13:31N 59°06' E 010°14'1 2.6
2019-Sep-13 13:00N 59°08' E 010°14'0 0.5
2019-Sep-13 12:30N 59°07' E 010°14'611.8
2019-Sep-13 12:01N 59°02' E 010°16'815.2
2019-Sep-13 11:31N 59°00' E 010°31'815.3
2019-Sep-13 11:01N 59°02' E 010°45'815.4
2019-Sep-13 10:30N 58°59' E 010°60'612.8
2019-Sep-13 10:00N 58°56' E 011°10'0 0.2
2019-Sep-13 09:30N 58°56' E 011°10'0 0.9
2019-Sep-13 09:00N 58°56' E 011°09'713.8
2019-Sep-13 08:31N 58°60' E 010°58'714.7
2019-Sep-13 08:00N 59°02' E 010°44'714.1
2019-Sep-13 07:30N 59°00' E 010°31'714.2
2019-Sep-13 07:00N 59°01' E 010°18'612.3
2019-Sep-13 06:30N 59°07' E 010°14'0 0.8
2019-Sep-13 06:00N 59°08' E 010°14'0 0.4
2019-Sep-13 05:30N 59°07' E 010°14'1 2.5
2019-Sep-13 05:00N 59°06' E 010°14'0 0.0
2019-Sep-13 04:28N 59°06' E 010°14'0 0.0
2019-Sep-13 03:58N 59°06' E 010°14'0 0.0
2019-Sep-13 03:29N 59°06' E 010°14'0 0.0
2019-Sep-13 02:59N 59°06' E 010°14'0 0.0
2019-Sep-13 02:00N 59°06' E 010°14'0 0.0
2019-Sep-13 01:30N 59°06' E 010°14'0 0.0
2019-Sep-13 01:00N 59°06' E 010°14'0 0.0
2019-Sep-13 00:28N 59°06' E 010°14'0 0.0
2019-Sep-12 23:58N 59°06' E 010°14'0 0.0
2019-Sep-12 23:28N 59°06' E 010°14'0 0.0
2019-Sep-12 22:59N 59°06' E 010°14'0 0.0
2019-Sep-12 22:29N 59°06' E 010°14'0 0.0
2019-Sep-12 21:59N 59°06' E 010°14'0 0.0
2019-Sep-12 21:30N 59°06' E 010°14'0 0.0
2019-Sep-12 21:00N 59°06' E 010°14'0 0.0
2019-Sep-12 20:30N 59°06' E 010°14'0 0.0
2019-Sep-12 19:58N 59°06' E 010°14'1 2.9
2019-Sep-12 19:30N 59°08' E 010°14'1 1.1
2019-Sep-12 19:00N 59°07' E 010°14'612.7
2019-Sep-12 18:31N 59°01' E 010°18'714.6
2019-Sep-12 18:00N 59°01' E 010°32'815.1
2019-Sep-12 17:30N 59°02' E 010°47'815.7
2019-Sep-12 17:00N 58°59' E 011°01'611.1
2019-Sep-12 16:30N 58°56' E 011°10'0 0.5
2019-Sep-12 16:00N 58°56' E 011°10'612.5
2019-Sep-12 15:30N 58°59' E 010°59'714.3
2019-Sep-12 15:00N 59°02' E 010°46'714.4
2019-Sep-12 14:30N 59°00' E 010°33'714.7
2019-Sep-12 14:00N 59°01' E 010°18'611.4
2019-Sep-12 13:30N 59°06' E 010°14'1 2.3
2019-Sep-12 13:01N 59°08' E 010°14'0 0.8
2019-Sep-12 12:30N 59°07' E 010°14'612.0
2019-Sep-12 12:01N 59°02' E 010°17'714.0
2019-Sep-12 11:31N 59°00' E 010°30'714.1
2019-Sep-12 11:00N 59°02' E 010°44'714.2
2019-Sep-12 10:30N 59°00' E 010°57'714.8
2019-Sep-12 10:00N 58°56' E 011°08'1 1.8
2019-Sep-12 09:30N 58°56' E 011°10'0 0.6
2019-Sep-12 09:00N 58°56' E 011°10'612.8
2019-Sep-12 08:30N 58°59' E 010°59'714.4
2019-Sep-12 08:00N 59°02' E 010°46'714.5
2019-Sep-12 07:30N 59°01' E 010°32'714.5
2019-Sep-12 07:00N 59°01' E 010°18'612.4
2019-Sep-12 06:30N 59°07' E 010°14'0 0.8
2019-Sep-12 06:00N 59°08' E 010°14'0 0.3
2019-Sep-12 05:30N 59°07' E 010°14'1 2.5
2019-Sep-12 05:00N 59°06' E 010°14'0 0.0
2019-Sep-12 04:30N 59°06' E 010°14'0 0.0
2019-Sep-12 03:58N 59°06' E 010°14'0 0.0
2019-Sep-12 03:28N 59°06' E 010°14'0 0.0
2019-Sep-12 02:58N 59°06' E 010°14'0 0.0
2019-Sep-12 02:29N 59°06' E 010°14'0 0.0
2019-Sep-12 01:59N 59°06' E 010°14'0 0.0
2019-Sep-12 01:29N 59°06' E 010°14'0 0.0
2019-Sep-12 01:00N 59°06' E 010°14'0 0.0
2019-Sep-12 00:30N 59°06' E 010°14'0 0.0
2019-Sep-12 00:00N 59°06' E 010°14'0 0.0
2019-Sep-11 23:28N 59°06' E 010°14'0 0.0
2019-Sep-11 22:58N 59°06' E 010°14'0 0.0
2019-Sep-11 22:28N 59°06' E 010°14'0 0.0
2019-Sep-11 21:59N 59°06' E 010°14'0 0.0
2019-Sep-11 21:29N 59°06' E 010°14'0 0.0
2019-Sep-11 20:59N 59°06' E 010°14'0 0.0
2019-Sep-11 20:30N 59°06' E 010°14'0 0.0
2019-Sep-11 20:00N 59°06' E 010°14'1 1.7
2019-Sep-11 19:30N 59°07' E 010°14'1 1.0
2019-Sep-11 19:00N 59°08' E 010°14'611.5
2019-Sep-11 18:30N 59°02' E 010°16'714.4
2019-Sep-11 18:00N 59°00' E 010°30'714.3
2019-Sep-11 17:31N 59°02' E 010°43'815.0
2019-Sep-11 17:00N 59°00' E 010°57'714.7
2019-Sep-11 16:30N 58°56' E 011°09'1 1.3
2019-Sep-11 16:00N 58°56' E 011°10'5 9.1
2019-Sep-11 15:30N 58°58' E 011°02'714.0
2019-Sep-11 15:00N 59°01' E 010°50'714.2
2019-Sep-11 14:30N 59°01' E 010°36'815.0
2019-Sep-11 14:00N 59°01' E 010°22'612.6
2019-Sep-11 13:30N 59°06' E 010°14'2 3.5
2019-Sep-11 13:00N 59°08' E 010°14'0 0.6
2019-Sep-11 12:30N 59°07' E 010°14'612.6
2019-Sep-11 12:00N 59°01' E 010°18'714.0
2019-Sep-11 11:30N 59°00' E 010°31'713.9
2019-Sep-11 11:00N 59°02' E 010°44'714.1
2019-Sep-11 10:30N 58°60' E 010°58'714.3
2019-Sep-11 10:00N 58°56' E 011°09'1 1.4
2019-Sep-11 09:31N 58°56' E 011°10'0 0.3
2019-Sep-11 09:00N 58°56' E 011°10'613.1
2019-Sep-11 08:30N 58°59' E 010°59'714.5
2019-Sep-11 08:01N 59°02' E 010°46'815.2
2019-Sep-11 07:31N 59°01' E 010°31'714.8
2019-Sep-11 07:00N 59°01' E 010°17'612.3
2019-Sep-11 06:30N 59°07' E 010°14'0 0.4
2019-Sep-11 06:01N 59°08' E 010°14'0 0.0
2019-Sep-11 05:31N 59°08' E 010°14'1 2.8
2019-Sep-11 05:00N 59°06' E 010°14'0 0.0
2019-Sep-11 04:31N 59°06' E 010°14'0 0.0
2019-Sep-11 03:58N 59°06' E 010°14'0 0.0
2019-Sep-11 03:28N 59°06' E 010°14'0 0.0
2019-Sep-11 02:59N 59°06' E 010°14'0 0.0
2019-Sep-11 02:29N 59°06' E 010°14'0 0.0
2019-Sep-11 01:59N 59°06' E 010°14'0 0.0
2019-Sep-11 01:30N 59°06' E 010°14'0 0.0
2019-Sep-11 01:00N 59°06' E 010°14'0 0.0
2019-Sep-11 00:30N 59°06' E 010°14'0 0.0
2019-Sep-11 00:01N 59°06' E 010°14'0 0.0
2019-Sep-10 23:28N 59°06' E 010°14'0 0.0
2019-Sep-10 22:58N 59°06' E 010°14'0 0.0
2019-Sep-10 22:29N 59°06' E 010°14'0 0.0
2019-Sep-10 21:59N 59°06' E 010°14'0 0.0
2019-Sep-10 21:29N 59°06' E 010°14'0 0.0
2019-Sep-10 21:00N 59°06' E 010°14'0 0.0
2019-Sep-10 20:30N 59°06' E 010°14'0 0.0
2019-Sep-10 20:00N 59°06' E 010°14'1 2.5
2019-Sep-10 19:28N 59°07' E 010°14'1 1.1
2019-Sep-10 19:00N 59°07' E 010°14'611.8
2019-Sep-10 18:31N 59°01' E 010°18'714.1
2019-Sep-10 18:01N 59°00' E 010°31'714.5
2019-Sep-10 17:31N 59°01' E 010°45'713.7
2019-Sep-10 17:00N 58°60' E 010°58'713.2
2019-Sep-10 16:30N 58°56' E 011°09'1 1.6
2019-Sep-10 16:00N 58°56' E 011°10'5 9.8
2019-Sep-10 15:31N 58°58' E 011°02'714.7
2019-Sep-10 15:00N 59°01' E 010°49'714.2
2019-Sep-10 14:30N 59°01' E 010°35'714.3
2019-Sep-10 14:00N 59°01' E 010°21'612.6
2019-Sep-10 13:30N 59°06' E 010°14'2 3.1
2019-Sep-10 13:00N 59°08' E 010°14'1 1.2
2019-Sep-10 12:30N 59°07' E 010°14'611.9
2019-Sep-10 12:00N 59°02' E 010°18'713.7
2019-Sep-10 11:31N 59°01' E 010°31'714.0
2019-Sep-10 11:01N 59°01' E 010°45'713.5
2019-Sep-10 10:30N 58°60' E 010°57'713.8
2019-Sep-10 10:00N 58°56' E 011°08'1 2.1
2019-Sep-10 09:30N 58°56' E 011°10'1 1.2
2019-Sep-10 09:00N 58°56' E 011°09'713.3
2019-Sep-10 08:30N 58°60' E 010°59'714.5
2019-Sep-10 08:00N 59°02' E 010°45'714.1
2019-Sep-10 07:30N 59°01' E 010°32'714.0
2019-Sep-10 07:00N 59°01' E 010°18'612.5
2019-Sep-10 06:30N 59°07' E 010°14'0 0.7
2019-Sep-10 06:00N 59°08' E 010°14'0 0.8
2019-Sep-10 05:30N 59°07' E 010°14'1 2.0
2019-Sep-10 05:00N 59°06' E 010°14'0 0.0
2019-Sep-10 04:29N 59°06' E 010°14'0 0.0
2019-Sep-10 03:59N 59°06' E 010°14'0 0.0
2019-Sep-10 03:29N 59°06' E 010°14'0 0.0
2019-Sep-10 03:00N 59°06' E 010°14'0 0.0
2019-Sep-10 02:30N 59°06' E 010°14'0 0.0
2019-Sep-10 02:00N 59°06' E 010°14'0 0.0
2019-Sep-10 01:28N 59°06' E 010°14'0 0.0
2019-Sep-10 00:58N 59°06' E 010°14'0 0.0
2019-Sep-10 00:28N 59°06' E 010°14'0 0.0
2019-Sep-09 23:59N 59°06' E 010°14'0 0.0
2019-Sep-09 23:29N 59°06' E 010°14'0 0.0
2019-Sep-09 22:59N 59°06' E 010°14'0 0.0
2019-Sep-09 22:30N 59°06' E 010°14'0 0.0
2019-Sep-09 22:00N 59°06' E 010°14'0 0.0
2019-Sep-09 21:30N 59°06' E 010°14'0 0.0
2019-Sep-09 20:58N 59°06' E 010°14'0 0.0
2019-Sep-09 20:28N 59°06' E 010°14'0 0.0
2019-Sep-09 19:58N 59°06' E 010°14'0 0.7
2019-Sep-09 19:30N 59°06' E 010°14'1 1.7
2019-Sep-09 19:00N 59°07' E 010°14'612.0
2019-Sep-09 18:30N 59°02' E 010°17'714.6
2019-Sep-09 18:00N 59°01' E 010°31'714.9
2019-Sep-09 17:30N 59°02' E 010°45'714.3
2019-Sep-09 17:01N 58°60' E 010°58'713.6
2019-Sep-09 16:30N 58°56' E 011°09'1 1.2
2019-Sep-09 16:00N 58°56' E 011°10'5 9.9
2019-Sep-09 15:30N 58°58' E 011°02'714.3
2019-Sep-09 15:00N 59°01' E 010°49'713.9
2019-Sep-09 14:30N 59°01' E 010°36'714.5
2019-Sep-09 14:00N 59°01' E 010°21'612.7
2019-Sep-09 13:30N 59°06' E 010°14'2 3.4
2019-Sep-09 13:00N 59°08' E 010°14'1 1.4
2019-Sep-09 12:30N 59°07' E 010°14'611.5
2019-Sep-09 12:00N 59°02' E 010°18'713.6
2019-Sep-09 11:30N 59°01' E 010°31'713.7
2019-Sep-09 11:01N 59°01' E 010°44'713.7
2019-Sep-09 10:30N 58°60' E 010°57'713.5
2019-Sep-09 10:00N 58°56' E 011°07'1 2.8
2019-Sep-09 09:30N 58°56' E 011°10'1 1.2
2019-Sep-09 09:00N 58°56' E 011°09'713.6
2019-Sep-09 08:31N 58°60' E 010°58'714.7
2019-Sep-09 08:00N 59°01' E 010°44'714.1
2019-Sep-09 07:30N 59°00' E 010°31'714.2
2019-Sep-09 07:00N 59°01' E 010°17'612.4
2019-Sep-09 06:30N 59°07' E 010°14'0 0.4
2019-Sep-09 06:00N 59°08' E 010°14'0 0.8
2019-Sep-09 05:29N 59°07' E 010°14'1 2.1
2019-Sep-09 05:00N 59°06' E 010°14'0 0.0
2019-Sep-09 04:29N 59°06' E 010°14'0 0.0
2019-Sep-09 03:59N 59°06' E 010°14'0 0.0
2019-Sep-09 03:29N 59°06' E 010°14'0 0.0
2019-Sep-09 03:00N 59°06' E 010°14'0 0.0
2019-Sep-09 02:00N 59°06' E 010°14'0 0.0
2019-Sep-09 01:28N 59°06' E 010°14'0 0.0
2019-Sep-09 00:58N 59°06' E 010°14'0 0.0
2019-Sep-09 00:28N 59°06' E 010°14'0 0.0
2019-Sep-08 23:59N 59°06' E 010°14'0 0.0
2019-Sep-08 23:29N 59°06' E 010°14'0 0.0
2019-Sep-08 22:59N 59°06' E 010°14'0 0.0
2019-Sep-08 22:30N 59°06' E 010°14'0 0.0
2019-Sep-08 22:00N 59°06' E 010°14'0 0.0
2019-Sep-08 21:30N 59°06' E 010°14'0 0.0
2019-Sep-08 20:58N 59°06' E 010°14'0 0.0
2019-Sep-08 20:28N 59°06' E 010°14'0 0.0
2019-Sep-08 19:58N 59°06' E 010°14'1 2.0
2019-Sep-08 19:30N 59°07' E 010°14'0 0.3
2019-Sep-08 19:00N 59°07' E 010°14'611.8
2019-Sep-08 18:30N 59°02' E 010°17'815.1
2019-Sep-08 18:00N 59°01' E 010°31'815.1
2019-Sep-08 17:30N 59°02' E 010°46'713.9
2019-Sep-08 17:00N 58°60' E 010°59'713.3
2019-Sep-08 16:30N 58°56' E 011°09'1 1.1
2019-Sep-08 16:00N 58°56' E 011°10'5 9.6
2019-Sep-08 15:30N 58°58' E 011°02'714.1
2019-Sep-08 15:00N 59°01' E 010°50'714.5
2019-Sep-08 14:30N 59°01' E 010°36'714.1
2019-Sep-08 14:00N 59°01' E 010°22'612.8
2019-Sep-08 13:30N 59°06' E 010°14'2 3.5
2019-Sep-08 13:00N 59°08' E 010°14'1 1.4
2019-Sep-08 12:30N 59°07' E 010°14'611.4
2019-Sep-08 12:00N 59°02' E 010°17'713.7
2019-Sep-08 11:30N 59°00' E 010°30'714.4
2019-Sep-08 11:01N 59°02' E 010°44'713.8
2019-Sep-08 10:30N 58°60' E 010°57'713.8
2019-Sep-08 10:00N 58°56' E 011°08'1 2.1
2019-Sep-08 09:31N 58°56' E 011°10'0 0.4
2019-Sep-08 09:01N 58°56' E 011°10'713.5
2019-Sep-08 08:30N 58°59' E 010°59'714.6
2019-Sep-08 08:01N 59°02' E 010°45'714.2
2019-Sep-08 07:30N 59°01' E 010°31'713.8
2019-Sep-08 07:00N 59°01' E 010°18'612.4
2019-Sep-08 06:30N 59°07' E 010°14'0 0.8
2019-Sep-08 06:00N 59°08' E 010°14'0 0.8
2019-Sep-08 05:30N 59°07' E 010°14'1 1.9
2019-Sep-08 04:58N 59°06' E 010°14'0 0.0
2019-Sep-08 04:29N 59°06' E 010°14'0 0.0
2019-Sep-08 03:59N 59°06' E 010°14'0 0.0
2019-Sep-08 03:29N 59°06' E 010°14'0 0.0
2019-Sep-08 03:00N 59°06' E 010°14'0 0.0
2019-Sep-08 02:30N 59°06' E 010°14'0 0.0
2019-Sep-08 02:00N 59°06' E 010°14'0 0.0
2019-Sep-08 01:30N 59°06' E 010°14'0 0.0
2019-Sep-08 00:58N 59°06' E 010°14'0 0.0
2019-Sep-08 00:28N 59°06' E 010°14'0 0.0
2019-Sep-07 23:59N 59°06' E 010°14'0 0.0
2019-Sep-07 23:29N 59°06' E 010°14'0 0.0
2019-Sep-07 22:59N 59°06' E 010°14'0 0.0
2019-Sep-07 22:30N 59°06' E 010°14'0 0.0
2019-Sep-07 21:57N 59°06' E 010°14'0 0.0
2019-Sep-07 21:30N 59°06' E 010°14'0 0.0
2019-Sep-07 21:01N 59°06' E 010°14'0 0.0
2019-Sep-07 20:28N 59°06' E 010°14'0 0.0
2019-Sep-07 19:58N 59°06' E 010°14'0 0.0
2019-Sep-07 19:27N 59°06' E 010°14'1 3.1
2019-Sep-07 19:00N 59°08' E 010°14'4 7.9
2019-Sep-07 18:31N 59°04' E 010°15'612.8
2019-Sep-07 18:00N 59°01' E 010°26'815.9
2019-Sep-07 17:30N 59°01' E 010°41'816.0
2019-Sep-07 17:00N 59°00' E 010°57'815.1
2019-Sep-07 16:30N 58°56' E 011°08'1 1.7
2019-Sep-07 16:00N 58°56' E 011°10'4 8.4
2019-Sep-07 15:30N 58°58' E 011°03'715.0
2019-Sep-07 15:01N 59°01' E 010°50'714.8
2019-Sep-07 14:30N 59°01' E 010°36'714.6
2019-Sep-07 14:00N 59°01' E 010°21'612.8
2019-Sep-07 13:30N 59°06' E 010°14'2 3.2
2019-Sep-07 13:00N 59°08' E 010°14'0 0.9
2019-Sep-07 12:30N 59°07' E 010°14'611.9
2019-Sep-07 12:00N 59°01' E 010°17'713.9
2019-Sep-07 11:30N 59°00' E 010°31'714.3
2019-Sep-07 11:01N 59°02' E 010°44'714.8
2019-Sep-07 10:30N 58°60' E 010°58'713.9
2019-Sep-07 10:00N 58°56' E 011°10'0 0.7
2019-Sep-07 09:31N 58°56' E 011°10'0 0.3
2019-Sep-07 09:00N 58°56' E 011°10'713.5
2019-Sep-07 08:30N 58°60' E 010°59'815.1
2019-Sep-07 08:01N 59°02' E 010°45'  
Track history (hours):
 
Tides and Currents Weather Stations Pressure Air Temp Water Temp Dewpoint Dewpoint Depression Visibility Wind Speed Wind Dir Waves Ship Positions

DucheSS Of Scandinavia

Operator: DFDS A/S

Last reported at 2019-Sep-17 08:00 UTC. Time now 2019-Sep-17 08:19 UTC.
Position N 59°02' E 010°45'.

Length 134 m; draft 5.4 m.

Type: Passenger vessel. MMSI: 219002929.

Date/timePositionNaut miles runAvg speedWind from/ knotsBaromVisibWave heightAir tempDewpointWater temp
2019-Sep-17 08:00N 59°02' E 010°45'714.7
2019-Sep-17 07:30N 59°00' E 010°31'714.6
2019-Sep-17 07:01N 59°01' E 010°17'612.4
2019-Sep-17 06:31N 59°07' E 010°14'0 0.6
2019-Sep-17 06:00N 59°08' E 010°14'0 0.6
2019-Sep-17 05:30N 59°07' E 010°14'1 2.3
2019-Sep-17 05:00N 59°06' E 010°14'0 0.0
2019-Sep-17 04:30N 59°06' E 010°14'0 0.0
2019-Sep-17 04:00N 59°06' E 010°14'0 0.0
2019-Sep-17 03:28N 59°06' E 010°14'0 0.0
2019-Sep-17 02:58N 59°06' E 010°14'0 0.0
2019-Sep-17 02:28N 59°06' E 010°14'0 0.0
2019-Sep-17 01:59N 59°06' E 010°14'0 0.0
2019-Sep-17 01:29N 59°06' E 010°14'0 0.0
2019-Sep-17 00:56N 59°06' E 010°14'0 0.0
2019-Sep-17 00:30N 59°06' E 010°14'0 0.0
2019-Sep-17 00:00N 59°06' E 010°14'0 0.0
2019-Sep-16 23:30N 59°06' E 010°14'0 0.0
2019-Sep-16 22:58N 59°06' E 010°14'0 0.0
2019-Sep-16 22:28N 59°06' E 010°14'0 0.0
2019-Sep-16 21:58N 59°06' E 010°14'0 0.0
2019-Sep-16 21:29N 59°06' E 010°14'0 0.0
2019-Sep-16 20:59N 59°06' E 010°14'0 0.0
2019-Sep-16 20:29N 59°06' E 010°14'0 0.0
2019-Sep-16 20:00N 59°06' E 010°14'0 0.2
2019-Sep-16 19:30N 59°06' E 010°14'1 2.6
2019-Sep-16 19:00N 59°08' E 010°14'4 8.9
2019-Sep-16 18:30N 59°03' E 010°15'815.0
2019-Sep-16 18:00N 59°01' E 010°29'816.1
2019-Sep-16 17:30N 59°02' E 010°44'815.9
2019-Sep-16 17:00N 58°59' E 010°59'612.9
2019-Sep-16 16:30N 58°56' E 011°10'0 0.2
2019-Sep-16 16:00N 58°56' E 011°10'4 8.5
2019-Sep-16 15:30N 58°58' E 011°03'714.5
2019-Sep-16 15:01N 59°01' E 010°50'714.7
2019-Sep-16 14:30N 59°01' E 010°36'714.7
2019-Sep-16 14:00N 59°01' E 010°22'613.0
2019-Sep-16 13:30N 59°06' E 010°14'2 3.2
2019-Sep-16 13:00N 59°08' E 010°14'0 0.7
2019-Sep-16 12:30N 59°07' E 010°14'611.4
2019-Sep-16 12:00N 59°02' E 010°16'714.1
2019-Sep-16 11:30N 59°00' E 010°30'714.1
2019-Sep-16 11:00N 59°02' E 010°43'815.1
2019-Sep-16 10:30N 59°00' E 010°58'714.3
2019-Sep-16 10:00N 58°56' E 011°09'1 1.5
2019-Sep-16 09:30N 58°56' E 011°10'0 0.4
2019-Sep-16 09:00N 58°56' E 011°10'612.6
2019-Sep-16 08:30N 58°59' E 010°59'715.0
2019-Sep-16 08:00N 59°02' E 010°46'815.2
2019-Sep-16 07:30N 59°00' E 010°31'714.8
2019-Sep-16 07:00N 59°01' E 010°17'612.2
2019-Sep-16 06:30N 59°07' E 010°14'0 0.5
2019-Sep-16 06:01N 59°08' E 010°14'1 1.8
2019-Sep-16 05:30N 59°07' E 010°14'1 1.1
2019-Sep-16 05:00N 59°06' E 010°14'0 0.0
2019-Sep-16 04:30N 59°06' E 010°14'0 0.0
2019-Sep-16 04:00N 59°06' E 010°14'0 0.0
2019-Sep-16 03:30N 59°06' E 010°14'0 0.0
2019-Sep-16 02:58N 59°06' E 010°14'0 0.0
2019-Sep-16 02:28N 59°06' E 010°14'0 0.0
2019-Sep-16 01:58N 59°06' E 010°14'0 0.0
2019-Sep-16 01:29N 59°06' E 010°14'0 0.0
2019-Sep-16 00:59N 59°06' E 010°14'0 0.0
2019-Sep-16 00:29N 59°06' E 010°14'0 0.0
2019-Sep-16 00:00N 59°06' E 010°14'0 0.0
2019-Sep-15 23:30N 59°06' E 010°14'0 0.0
2019-Sep-15 23:00N 59°06' E 010°14'0 0.0
2019-Sep-15 22:28N 59°06' E 010°14'0 0.0
2019-Sep-15 21:58N 59°06' E 010°14'0 0.0
2019-Sep-15 21:28N 59°06' E 010°14'0 0.0
2019-Sep-15 20:59N 59°06' E 010°14'0 0.0
2019-Sep-15 20:29N 59°06' E 010°14'0 0.0
2019-Sep-15 19:59N 59°06' E 010°14'0 0.0
2019-Sep-15 19:30N 59°06' E 010°14'0 0.0
2019-Sep-15 19:00N 59°06' E 010°14'0 0.0
2019-Sep-15 18:30N 59°06' E 010°14'0 0.0
2019-Sep-15 17:58N 59°06' E 010°14'0 0.0
2019-Sep-15 17:28N 59°06' E 010°14'0 0.0
2019-Sep-15 16:58N 59°06' E 010°14'0 0.0
2019-Sep-15 16:29N 59°06' E 010°14'0 0.0
2019-Sep-15 15:59N 59°06' E 010°14'0 0.0
2019-Sep-15 15:29N 59°06' E 010°14'0 0.0
2019-Sep-15 15:00N 59°06' E 010°14'0 0.0
2019-Sep-15 14:30N 59°06' E 010°14'0 0.0
2019-Sep-15 14:00N 59°06' E 010°14'1 2.5
2019-Sep-15 13:30N 59°07' E 010°14'0 0.1
2019-Sep-15 13:01N 59°07' E 010°14'611.8
2019-Sep-15 12:30N 59°01' E 010°15'611.9
2019-Sep-15 12:01N 58°60' E 010°26'611.3
2019-Sep-15 11:31N 59°00' E 010°37'611.4
2019-Sep-15 11:01N 59°02' E 010°47'714.8
2019-Sep-15 10:30N 58°59' E 011°01'611.5
2019-Sep-15 10:00N 58°56' E 011°10'0 0.0
2019-Sep-15 09:30N 58°56' E 011°10'1 1.8
2019-Sep-15 09:00N 58°56' E 011°08'714.6
2019-Sep-15 08:30N 59°00' E 010°57'714.8
2019-Sep-15 08:00N 59°02' E 010°43'815.2
2019-Sep-15 07:30N 58°59' E 010°29'715.1
2019-Sep-15 07:00N 59°01' E 010°15'612.8
2019-Sep-15 06:30N 59°07' E 010°14'0 0.4
2019-Sep-15 06:00N 59°08' E 010°14'0 0.7
2019-Sep-15 05:31N 59°07' E 010°14'1 2.1
2019-Sep-15 05:00N 59°06' E 010°14'0 0.0
2019-Sep-15 04:29N 59°06' E 010°14'0 0.0
2019-Sep-15 03:59N 59°06' E 010°14'0 0.0
2019-Sep-15 03:29N 59°06' E 010°14'0 0.0
2019-Sep-15 03:00N 59°06' E 010°14'0 0.0
2019-Sep-15 02:30N 59°06' E 010°14'0 0.0
2019-Sep-15 02:00N 59°06' E 010°14'0 0.0
2019-Sep-15 01:28N 59°06' E 010°14'0 0.0
2019-Sep-15 00:58N 59°06' E 010°14'0 0.0
2019-Sep-15 00:28N 59°06' E 010°14'0 0.0
2019-Sep-14 23:59N 59°06' E 010°14'0 0.0
2019-Sep-14 23:29N 59°06' E 010°14'0 0.0
2019-Sep-14 22:59N 59°06' E 010°14'0 0.0
2019-Sep-14 22:30N 59°06' E 010°14'0 0.0
2019-Sep-14 22:00N 59°06' E 010°14'0 0.0
2019-Sep-14 21:30N 59°06' E 010°14'0 0.0
2019-Sep-14 20:58N 59°06' E 010°14'0 0.0
2019-Sep-14 20:28N 59°06' E 010°14'0 0.0
2019-Sep-14 19:58N 59°06' E 010°14'1 3.1
2019-Sep-14 19:30N 59°08' E 010°14'2 3.7
2019-Sep-14 19:00N 59°06' E 010°14'713.5
2019-Sep-14 18:30N 59°00' E 010°22'611.9
2019-Sep-14 18:00N 59°00' E 010°33'612.5
2019-Sep-14 17:30N 59°01' E 010°45'714.7
2019-Sep-14 17:00N 58°60' E 010°59'713.3
2019-Sep-14 16:31N 58°56' E 011°09'0 0.7
2019-Sep-14 16:00N 58°56' E 011°10'4 8.4
2019-Sep-14 15:30N 58°58' E 011°03'714.7
2019-Sep-14 15:00N 59°01' E 010°50'714.6
2019-Sep-14 14:31N 59°01' E 010°36'815.1
2019-Sep-14 14:00N 59°01' E 010°21'612.9
2019-Sep-14 13:30N 59°06' E 010°14'1 2.9
2019-Sep-14 13:00N 59°08' E 010°14'0 0.6
2019-Sep-14 12:30N 59°07' E 010°14'612.0
2019-Sep-14 12:00N 59°02' E 010°17'714.8
2019-Sep-14 11:30N 59°00' E 010°31'715.0
2019-Sep-14 11:01N 59°02' E 010°45'714.8
2019-Sep-14 10:30N 58°60' E 010°59'713.6
2019-Sep-14 10:00N 58°56' E 011°10'0 0.3
2019-Sep-14 09:30N 58°56' E 011°10'0 0.3
2019-Sep-14 09:00N 58°56' E 011°10'713.5
2019-Sep-14 08:30N 58°60' E 010°59'815.6
2019-Sep-14 08:01N 59°02' E 010°44'815.6
2019-Sep-14 07:31N 59°00' E 010°29'815.0
2019-Sep-14 07:00N 59°03' E 010°15'510.2
2019-Sep-14 06:30N 59°08' E 010°14'0 0.0
2019-Sep-14 06:00N 59°08' E 010°14'1 1.1
2019-Sep-14 05:30N 59°07' E 010°14'1 1.8
2019-Sep-14 05:00N 59°06' E 010°14'0 0.0
2019-Sep-14 04:28N 59°06' E 010°14'0 0.0
2019-Sep-14 03:58N 59°06' E 010°14'0 0.0
2019-Sep-14 03:28N 59°06' E 010°14'0 0.0
2019-Sep-14 02:59N 59°06' E 010°14'0 0.0
2019-Sep-14 02:29N 59°06' E 010°14'0 0.0
2019-Sep-14 01:59N 59°06' E 010°14'0 0.0
2019-Sep-14 01:30N 59°06' E 010°14'0 0.0
2019-Sep-14 01:00N 59°06' E 010°14'0 0.0
2019-Sep-14 00:30N 59°06' E 010°14'0 0.0
2019-Sep-13 23:58N 59°06' E 010°14'0 0.0
2019-Sep-13 23:28N 59°06' E 010°14'0 0.0
2019-Sep-13 22:59N 59°06' E 010°14'0 0.0
2019-Sep-13 22:29N 59°06' E 010°14'0 0.0
2019-Sep-13 21:59N 59°06' E 010°14'0 0.0
2019-Sep-13 21:29N 59°06' E 010°14'0 0.0
2019-Sep-13 21:00N 59°06' E 010°14'0 0.0
2019-Sep-13 20:30N 59°06' E 010°14'0 0.0
2019-Sep-13 20:00N 59°06' E 010°14'1 2.9
2019-Sep-13 19:30N 59°08' E 010°14'1 1.4
2019-Sep-13 19:00N 59°07' E 010°14'612.3
2019-Sep-13 18:30N 59°01' E 010°19'815.9
2019-Sep-13 18:01N 59°01' E 010°34'816.1
2019-Sep-13 17:31N 59°01' E 010°50'815.8
2019-Sep-13 17:00N 58°58' E 011°04'4 7.6
2019-Sep-13 16:30N 58°56' E 011°10'0 0.0
2019-Sep-13 16:00N 58°56' E 011°10'4 8.6
2019-Sep-13 15:30N 58°58' E 011°03'815.3
2019-Sep-13 15:00N 59°01' E 010°49'715.1
2019-Sep-13 14:30N 59°01' E 010°35'714.9
2019-Sep-13 14:00N 59°01' E 010°20'612.7
2019-Sep-13 13:31N 59°06' E 010°14'1 2.6
2019-Sep-13 13:00N 59°08' E 010°14'0 0.5
2019-Sep-13 12:30N 59°07' E 010°14'611.8
2019-Sep-13 12:01N 59°02' E 010°16'815.2
2019-Sep-13 11:31N 59°00' E 010°31'815.3
2019-Sep-13 11:01N 59°02' E 010°45'815.4
2019-Sep-13 10:30N 58°59' E 010°60'612.8
2019-Sep-13 10:00N 58°56' E 011°10'0 0.2
2019-Sep-13 09:30N 58°56' E 011°10'0 0.9
2019-Sep-13 09:00N 58°56' E 011°09'713.8
2019-Sep-13 08:31N 58°60' E 010°58'714.7
2019-Sep-13 08:00N 59°02' E 010°44'714.1
2019-Sep-13 07:30N 59°00' E 010°31'714.2
2019-Sep-13 07:00N 59°01' E 010°18'612.3
2019-Sep-13 06:30N 59°07' E 010°14'0 0.8
2019-Sep-13 06:00N 59°08' E 010°14'0 0.4
2019-Sep-13 05:30N 59°07' E 010°14'1 2.5
2019-Sep-13 05:00N 59°06' E 010°14'0 0.0
2019-Sep-13 04:28N 59°06' E 010°14'0 0.0
2019-Sep-13 03:58N 59°06' E 010°14'0 0.0
2019-Sep-13 03:29N 59°06' E 010°14'0 0.0
2019-Sep-13 02:59N 59°06' E 010°14'0 0.0
2019-Sep-13 02:00N 59°06' E 010°14'0 0.0
2019-Sep-13 01:30N 59°06' E 010°14'0 0.0
2019-Sep-13 01:00N 59°06' E 010°14'0 0.0
2019-Sep-13 00:28N 59°06' E 010°14'0 0.0
2019-Sep-12 23:58N 59°06' E 010°14'0 0.0
2019-Sep-12 23:28N 59°06' E 010°14'0 0.0
2019-Sep-12 22:59N 59°06' E 010°14'0 0.0
2019-Sep-12 22:29N 59°06' E 010°14'0 0.0
2019-Sep-12 21:59N 59°06' E 010°14'0 0.0
2019-Sep-12 21:30N 59°06' E 010°14'0 0.0
2019-Sep-12 21:00N 59°06' E 010°14'0 0.0
2019-Sep-12 20:30N 59°06' E 010°14'0 0.0
2019-Sep-12 19:58N 59°06' E 010°14'1 2.9
2019-Sep-12 19:30N 59°08' E 010°14'1 1.1
2019-Sep-12 19:00N 59°07' E 010°14'612.7
2019-Sep-12 18:31N 59°01' E 010°18'714.6
2019-Sep-12 18:00N 59°01' E 010°32'815.1
2019-Sep-12 17:30N 59°02' E 010°47'815.7
2019-Sep-12 17:00N 58°59' E 011°01'611.1
2019-Sep-12 16:30N 58°56' E 011°10'0 0.5
2019-Sep-12 16:00N 58°56' E 011°10'612.5
2019-Sep-12 15:30N 58°59' E 010°59'714.3
2019-Sep-12 15:00N 59°02' E 010°46'714.4
2019-Sep-12 14:30N 59°00' E 010°33'714.7
2019-Sep-12 14:00N 59°01' E 010°18'611.4
2019-Sep-12 13:30N 59°06' E 010°14'1 2.3
2019-Sep-12 13:01N 59°08' E 010°14'0 0.8
2019-Sep-12 12:30N 59°07' E 010°14'612.0
2019-Sep-12 12:01N 59°02' E 010°17'714.0
2019-Sep-12 11:31N 59°00' E 010°30'714.1
2019-Sep-12 11:00N 59°02' E 010°44'714.2
2019-Sep-12 10:30N 59°00' E 010°57'714.8
2019-Sep-12 10:00N 58°56' E 011°08'1 1.8
2019-Sep-12 09:30N 58°56' E 011°10'0 0.6
2019-Sep-12 09:00N 58°56' E 011°10'612.8
2019-Sep-12 08:30N 58°59' E 010°59'714.4
2019-Sep-12 08:00N 59°02' E 010°46'714.5
2019-Sep-12 07:30N 59°01' E 010°32'714.5
2019-Sep-12 07:00N 59°01' E 010°18'612.4
2019-Sep-12 06:30N 59°07' E 010°14'0 0.8
2019-Sep-12 06:00N 59°08' E 010°14'0 0.3
2019-Sep-12 05:30N 59°07' E 010°14'1 2.5
2019-Sep-12 05:00N 59°06' E 010°14'0 0.0
2019-Sep-12 04:30N 59°06' E 010°14'0 0.0
2019-Sep-12 03:58N 59°06' E 010°14'0 0.0
2019-Sep-12 03:28N 59°06' E 010°14'0 0.0
2019-Sep-12 02:58N 59°06' E 010°14'0 0.0
2019-Sep-12 02:29N 59°06' E 010°14'0 0.0
2019-Sep-12 01:59N 59°06' E 010°14'0 0.0
2019-Sep-12 01:29N 59°06' E 010°14'0 0.0
2019-Sep-12 01:00N 59°06' E 010°14'0 0.0
2019-Sep-12 00:30N 59°06' E 010°14'0 0.0
2019-Sep-12 00:00N 59°06' E 010°14'0 0.0
2019-Sep-11 23:28N 59°06' E 010°14'0 0.0
2019-Sep-11 22:58N 59°06' E 010°14'0 0.0
2019-Sep-11 22:28N 59°06' E 010°14'0 0.0
2019-Sep-11 21:59N 59°06' E 010°14'0 0.0
2019-Sep-11 21:29N 59°06' E 010°14'0 0.0
2019-Sep-11 20:59N 59°06' E 010°14'0 0.0
2019-Sep-11 20:30N 59°06' E 010°14'0 0.0
2019-Sep-11 20:00N 59°06' E 010°14'1 1.7
2019-Sep-11 19:30N 59°07' E 010°14'1 1.0
2019-Sep-11 19:00N 59°08' E 010°14'611.5
2019-Sep-11 18:30N 59°02' E 010°16'714.4
2019-Sep-11 18:00N 59°00' E 010°30'714.3
2019-Sep-11 17:31N 59°02' E 010°43'815.0
2019-Sep-11 17:00N 59°00' E 010°57'714.7
2019-Sep-11 16:30N 58°56' E 011°09'1 1.3
2019-Sep-11 16:00N 58°56' E 011°10'5 9.1
2019-Sep-11 15:30N 58°58' E 011°02'714.0
2019-Sep-11 15:00N 59°01' E 010°50'714.2
2019-Sep-11 14:30N 59°01' E 010°36'815.0
2019-Sep-11 14:00N 59°01' E 010°22'612.6
2019-Sep-11 13:30N 59°06' E 010°14'2 3.5
2019-Sep-11 13:00N 59°08' E 010°14'0 0.6
2019-Sep-11 12:30N 59°07' E 010°14'612.6
2019-Sep-11 12:00N 59°01' E 010°18'714.0
2019-Sep-11 11:30N 59°00' E 010°31'713.9
2019-Sep-11 11:00N 59°02' E 010°44'714.1
2019-Sep-11 10:30N 58°60' E 010°58'714.3
2019-Sep-11 10:00N 58°56' E 011°09'1 1.4
2019-Sep-11 09:31N 58°56' E 011°10'0 0.3
2019-Sep-11 09:00N 58°56' E 011°10'613.1
2019-Sep-11 08:30N 58°59' E 010°59'714.5
2019-Sep-11 08:01N 59°02' E 010°46'815.2
2019-Sep-11 07:31N 59°01' E 010°31'714.8
2019-Sep-11 07:00N 59°01' E 010°17'612.3
2019-Sep-11 06:30N 59°07' E 010°14'0 0.4
2019-Sep-11 06:01N 59°08' E 010°14'0 0.0
2019-Sep-11 05:31N 59°08' E 010°14'1 2.8
2019-Sep-11 05:00N 59°06' E 010°14'0 0.0
2019-Sep-11 04:31N 59°06' E 010°14'0 0.0
2019-Sep-11 03:58N 59°06' E 010°14'0 0.0
2019-Sep-11 03:28N 59°06' E 010°14'0 0.0
2019-Sep-11 02:59N 59°06' E 010°14'0 0.0
2019-Sep-11 02:29N 59°06' E 010°14'0 0.0
2019-Sep-11 01:59N 59°06' E 010°14'0 0.0
2019-Sep-11 01:30N 59°06' E 010°14'0 0.0
2019-Sep-11 01:00N 59°06' E 010°14'0 0.0
2019-Sep-11 00:30N 59°06' E 010°14'0 0.0
2019-Sep-11 00:01N 59°06' E 010°14'0 0.0
2019-Sep-10 23:28N 59°06' E 010°14'0 0.0
2019-Sep-10 22:58N 59°06' E 010°14'0 0.0
2019-Sep-10 22:29N 59°06' E 010°14'0 0.0
2019-Sep-10 21:59N 59°06' E 010°14'0 0.0
2019-Sep-10 21:29N 59°06' E 010°14'0 0.0
2019-Sep-10 21:00N 59°06' E 010°14'0 0.0
2019-Sep-10 20:30N 59°06' E 010°14'0 0.0
2019-Sep-10 20:00N 59°06' E 010°14'1 2.5
2019-Sep-10 19:28N 59°07' E 010°14'1 1.1
2019-Sep-10 19:00N 59°07' E 010°14'611.8
2019-Sep-10 18:31N 59°01' E 010°18'714.1
2019-Sep-10 18:01N 59°00' E 010°31'714.5
2019-Sep-10 17:31N 59°01' E 010°45'713.7
2019-Sep-10 17:00N 58°60' E 010°58'713.2
2019-Sep-10 16:30N 58°56' E 011°09'1 1.6
2019-Sep-10 16:00N 58°56' E 011°10'5 9.8
2019-Sep-10 15:31N 58°58' E 011°02'714.7
2019-Sep-10 15:00N 59°01' E 010°49'714.2
2019-Sep-10 14:30N 59°01' E 010°35'714.3
2019-Sep-10 14:00N 59°01' E 010°21'612.6
2019-Sep-10 13:30N 59°06' E 010°14'2 3.1
2019-Sep-10 13:00N 59°08' E 010°14'1 1.2
2019-Sep-10 12:30N 59°07' E 010°14'611.9
2019-Sep-10 12:00N 59°02' E 010°18'713.7
2019-Sep-10 11:31N 59°01' E 010°31'714.0
2019-Sep-10 11:01N 59°01' E 010°45'713.5
2019-Sep-10 10:30N 58°60' E 010°57'713.8
2019-Sep-10 10:00N 58°56' E 011°08'1 2.1
2019-Sep-10 09:30N 58°56' E 011°10'1 1.2
2019-Sep-10 09:00N 58°56' E 011°09'713.3
2019-Sep-10 08:30N 58°60' E 010°59'714.5
2019-Sep-10 08:00N 59°02' E 010°45'714.1
2019-Sep-10 07:30N 59°01' E 010°32'714.0
2019-Sep-10 07:00N 59°01' E 010°18'612.5
2019-Sep-10 06:30N 59°07' E 010°14'0 0.7
2019-Sep-10 06:00N 59°08' E 010°14'0 0.8
2019-Sep-10 05:30N 59°07' E 010°14'1 2.0
2019-Sep-10 05:00N 59°06' E 010°14'0 0.0
2019-Sep-10 04:29N 59°06' E 010°14'0 0.0
2019-Sep-10 03:59N 59°06' E 010°14'0 0.0
2019-Sep-10 03:29N 59°06' E 010°14'0 0.0
2019-Sep-10 03:00N 59°06' E 010°14'0 0.0
2019-Sep-10 02:30N 59°06' E 010°14'0 0.0
2019-Sep-10 02:00N 59°06' E 010°14'0 0.0
2019-Sep-10 01:28N 59°06' E 010°14'0 0.0
2019-Sep-10 00:58N 59°06' E 010°14'0 0.0
2019-Sep-10 00:28N 59°06' E 010°14'0 0.0
2019-Sep-09 23:59N 59°06' E 010°14'0 0.0
2019-Sep-09 23:29N 59°06' E 010°14'0 0.0
2019-Sep-09 22:59N 59°06' E 010°14'0 0.0
2019-Sep-09 22:30N 59°06' E 010°14'0 0.0
2019-Sep-09 22:00N 59°06' E 010°14'0 0.0
2019-Sep-09 21:30N 59°06' E 010°14'0 0.0
2019-Sep-09 20:58N 59°06' E 010°14'0 0.0
2019-Sep-09 20:28N 59°06' E 010°14'0 0.0
2019-Sep-09 19:58N 59°06' E 010°14'0 0.7
2019-Sep-09 19:30N 59°06' E 010°14'1 1.7
2019-Sep-09 19:00N 59°07' E 010°14'612.0
2019-Sep-09 18:30N 59°02' E 010°17'714.6
2019-Sep-09 18:00N 59°01' E 010°31'714.9
2019-Sep-09 17:30N 59°02' E 010°45'714.3
2019-Sep-09 17:01N 58°60' E 010°58'713.6
2019-Sep-09 16:30N 58°56' E 011°09'1 1.2
2019-Sep-09 16:00N 58°56' E 011°10'5 9.9
2019-Sep-09 15:30N 58°58' E 011°02'714.3
2019-Sep-09 15:00N 59°01' E 010°49'713.9
2019-Sep-09 14:30N 59°01' E 010°36'714.5
2019-Sep-09 14:00N 59°01' E 010°21'612.7
2019-Sep-09 13:30N 59°06' E 010°14'2 3.4
2019-Sep-09 13:00N 59°08' E 010°14'1 1.4
2019-Sep-09 12:30N 59°07' E 010°14'611.5
2019-Sep-09 12:00N 59°02' E 010°18'713.6
2019-Sep-09 11:30N 59°01' E 010°31'713.7
2019-Sep-09 11:01N 59°01' E 010°44'713.7
2019-Sep-09 10:30N 58°60' E 010°57'713.5
2019-Sep-09 10:00N 58°56' E 011°07'1 2.8
2019-Sep-09 09:30N 58°56' E 011°10'1 1.2
2019-Sep-09 09:00N 58°56' E 011°09'713.6
2019-Sep-09 08:31N 58°60' E 010°58'714.7
2019-Sep-09 08:00N 59°01' E 010°44'714.1
2019-Sep-09 07:30N 59°00' E 010°31'714.2
2019-Sep-09 07:00N 59°01' E 010°17'612.4
2019-Sep-09 06:30N 59°07' E 010°14'0 0.4
2019-Sep-09 06:00N 59°08' E 010°14'0 0.8
2019-Sep-09 05:29N 59°07' E 010°14'1 2.1
2019-Sep-09 05:00N 59°06' E 010°14'0 0.0
2019-Sep-09 04:29N 59°06' E 010°14'0 0.0
2019-Sep-09 03:59N 59°06' E 010°14'0 0.0
2019-Sep-09 03:29N 59°06' E 010°14'0 0.0
2019-Sep-09 03:00N 59°06' E 010°14'0 0.0
2019-Sep-09 02:00N 59°06' E 010°14'0 0.0
2019-Sep-09 01:28N 59°06' E 010°14'0 0.0
2019-Sep-09 00:58N 59°06' E 010°14'0 0.0
2019-Sep-09 00:28N 59°06' E 010°14'0 0.0
2019-Sep-08 23:59N 59°06' E 010°14'0 0.0
2019-Sep-08 23:29N 59°06' E 010°14'0 0.0
2019-Sep-08 22:59N 59°06' E 010°14'0 0.0
2019-Sep-08 22:30N 59°06' E 010°14'0 0.0
2019-Sep-08 22:00N 59°06' E 010°14'0 0.0
2019-Sep-08 21:30N 59°06' E 010°14'0 0.0
2019-Sep-08 20:58N 59°06' E 010°14'0 0.0
2019-Sep-08 20:28N 59°06' E 010°14'0 0.0
2019-Sep-08 19:58N 59°06' E 010°14'1 2.0
2019-Sep-08 19:30N 59°07' E 010°14'0 0.3
2019-Sep-08 19:00N 59°07' E 010°14'611.8
2019-Sep-08 18:30N 59°02' E 010°17'815.1
2019-Sep-08 18:00N 59°01' E 010°31'815.1
2019-Sep-08 17:30N 59°02' E 010°46'713.9
2019-Sep-08 17:00N 58°60' E 010°59'713.3
2019-Sep-08 16:30N 58°56' E 011°09'1 1.1
2019-Sep-08 16:00N 58°56' E 011°10'5 9.6
2019-Sep-08 15:30N 58°58' E 011°02'714.1
2019-Sep-08 15:00N 59°01' E 010°50'714.5
2019-Sep-08 14:30N 59°01' E 010°36'714.1
2019-Sep-08 14:00N 59°01' E 010°22'612.8
2019-Sep-08 13:30N 59°06' E 010°14'2 3.5
2019-Sep-08 13:00N 59°08' E 010°14'1 1.4
2019-Sep-08 12:30N 59°07' E 010°14'611.4
2019-Sep-08 12:00N 59°02' E 010°17'713.7
2019-Sep-08 11:30N 59°00' E 010°30'714.4
2019-Sep-08 11:01N 59°02' E 010°44'713.8
2019-Sep-08 10:30N 58°60' E 010°57'713.8
2019-Sep-08 10:00N 58°56' E 011°08'1 2.1
2019-Sep-08 09:31N 58°56' E 011°10'0 0.4
2019-Sep-08 09:01N 58°56' E 011°10'713.5
2019-Sep-08 08:30N 58°59' E 010°59'714.6
2019-Sep-08 08:01N 59°02' E 010°45'714.2
2019-Sep-08 07:30N 59°01' E 010°31'713.8
2019-Sep-08 07:00N 59°01' E 010°18'612.4
2019-Sep-08 06:30N 59°07' E 010°14'0 0.8
2019-Sep-08 06:00N 59°08' E 010°14'0 0.8
2019-Sep-08 05:30N 59°07' E 010°14'1 1.9
2019-Sep-08 04:58N 59°06' E 010°14'0 0.0
2019-Sep-08 04:29N 59°06' E 010°14'0 0.0
2019-Sep-08 03:59N 59°06' E 010°14'0 0.0
2019-Sep-08 03:29N 59°06' E 010°14'0 0.0
2019-Sep-08 03:00N 59°06' E 010°14'0 0.0
2019-Sep-08 02:30N 59°06' E 010°14'0 0.0
2019-Sep-08 02:00N 59°06' E 010°14'0 0.0
2019-Sep-08 01:30N 59°06' E 010°14'0 0.0
2019-Sep-08 00:58N 59°06' E 010°14'0 0.0
2019-Sep-08 00:28N 59°06' E 010°14'0 0.0
2019-Sep-07 23:59N 59°06' E 010°14'0 0.0
2019-Sep-07 23:29N 59°06' E 010°14'0 0.0
2019-Sep-07 22:59N 59°06' E 010°14'0 0.0
2019-Sep-07 22:30N 59°06' E 010°14'0 0.0
2019-Sep-07 21:57N 59°06' E 010°14'0 0.0
2019-Sep-07 21:30N 59°06' E 010°14'0 0.0
2019-Sep-07 21:01N 59°06' E 010°14'0 0.0
2019-Sep-07 20:28N 59°06' E 010°14'0 0.0
2019-Sep-07 19:58N 59°06' E 010°14'0 0.0
2019-Sep-07 19:27N 59°06' E 010°14'1 3.1
2019-Sep-07 19:00N 59°08' E 010°14'4 7.9
2019-Sep-07 18:31N 59°04' E 010°15'612.8
2019-Sep-07 18:00N 59°01' E 010°26'815.9
2019-Sep-07 17:30N 59°01' E 010°41'816.0
2019-Sep-07 17:00N 59°00' E 010°57'815.1
2019-Sep-07 16:30N 58°56' E 011°08'1 1.7
2019-Sep-07 16:00N 58°56' E 011°10'4 8.4
2019-Sep-07 15:30N 58°58' E 011°03'715.0
2019-Sep-07 15:01N 59°01' E 010°50'714.8
2019-Sep-07 14:30N 59°01' E 010°36'714.6
2019-Sep-07 14:00N 59°01' E 010°21'612.8
2019-Sep-07 13:30N 59°06' E 010°14'2 3.2
2019-Sep-07 13:00N 59°08' E 010°14'0 0.9
2019-Sep-07 12:30N 59°07' E 010°14'611.9
2019-Sep-07 12:00N 59°01' E 010°17'713.9
2019-Sep-07 11:30N 59°00' E 010°31'714.3
2019-Sep-07 11:01N 59°02' E 010°44'714.8
2019-Sep-07 10:30N 58°60' E 010°58'713.9
2019-Sep-07 10:00N 58°56' E 011°10'0 0.7
2019-Sep-07 09:31N 58°56' E 011°10'0 0.3
2019-Sep-07 09:00N 58°56' E 011°10'713.5
2019-Sep-07 08:30N 58°60' E 010°59'815.1
2019-Sep-07 08:01N 59°02' E 010°45'  

Dump ship's entire track history